Honea Path, South Carolina
Current Conditions -  °F | °C
As of 10:56 AM on Wednesday 22 Oct 2014 (Local Time) from KAND Reporting Station
Clear Clear  
Wind Chill: 58°   Ceiling: Unl
Heat Index: 58°   Visibility: 10mi
Dew Point: 38°   Wind: 8mph
Humidity: 47%   Direction: 300°WNW
Pressure: 30.1"   Gusts: NA
Location:  34.45°N, 82.39°W
Report Text: KAND 221456Z AUTO 30007KT 10SM CLR 14/03 A3010 RMK AO2 SLP189 T01440033 51010
Loading
Personal Weather Stations






























Interactive Weather Map
Tropical Storm Tracking
New forecast layout! Learn more

10-Day Weather Forecast

Advertisements
Track Severe Weather on mobile